Time;durP1;ratioP1;P1;durP2;ratioP2;P2;SDS_P1;SDS_P2;PMS_P1;PMS_P2;Temp;Humidity;BMP_temperature;BMP_pressure;BME280_temperature;BME280_humidity;BME280_pressure;Samples;Min_cycle;Max_cycle;Signal;HPM_P1;HPM_P2
2022/01/07 00:00:25;;;;;;;7.20;4.50;;;;;;;-2.76;70.02;100565.50;107561;1279;22888;-82
2022/01/07 00:03:10;;;;;;;8.70;4.50;;;;;;;-2.78;70.39;100566.58;108445;1274;26510;-83
2022/01/07 00:05:38;;;;;;;11.00;5.10;;;;;;;-2.84;70.30;100566.80;108253;1276;22550;-83
2022/01/07 00:08:05;;;;;;;11.40;5.20;;;;;;;-2.83;70.59;100573.04;107890;1280;23836;-84
2022/01/07 00:10:34;;;;;;;8.60;4.40;;;;;;;-2.81;70.73;100574.85;108542;1279;22624;-81
2022/01/07 00:13:02;;;;;;;12.50;4.70;;;;;;;-2.78;70.90;100572.42;108099;1279;25542;-84
2022/01/07 00:15:29;;;;;;;10.60;4.00;;;;;;;-2.77;71.06;100575.91;107421;1287;22543;-83
2022/01/07 00:17:58;;;;;;;9.80;4.60;;;;;;;-2.72;71.21;100574.27;106397;1287;24054;-82
2022/01/07 00:20:27;;;;;;;8.50;4.60;;;;;;;-2.66;71.38;100572.31;105573;1285;24242;-82
2022/01/07 00:22:54;;;;;;;12.30;5.40;;;;;;;-2.60;71.27;100573.79;105486;1287;24239;-84
2022/01/07 00:25:22;;;;;;;9.40;4.20;;;;;;;-2.60;71.28;100576.36;105428;1284;26557;-84
2022/01/07 00:27:50;;;;;;;13.00;5.20;;;;;;;-2.62;71.14;100580.23;105687;1281;25465;-78
2022/01/07 00:30:19;;;;;;;11.80;5.10;;;;;;;-2.61;71.48;100578.54;105330;1281;26495;-81
2022/01/07 00:32:47;;;;;;;11.50;5.70;;;;;;;-2.56;71.72;100581.04;105508;1280;22559;-81
2022/01/07 00:35:17;;;;;;;10.20;5.20;;;;;;;-2.53;71.73;100587.21;105851;1277;22675;-82
2022/01/07 00:37:46;;;;;;;9.30;4.80;;;;;;;-2.52;71.78;100588.99;105903;1276;22694;-83
2022/01/07 00:40:21;;;;;;;7.60;4.80;;;;;;;-2.51;71.90;100590.94;106092;1276;22652;-87
2022/01/07 00:42:50;;;;;;;10.10;5.40;;;;;;;-2.52;71.73;100590.35;106241;1277;24261;-87
2022/01/07 00:45:19;;;;;;;8.90;4.30;;;;;;;-2.56;71.76;100595.34;106607;1277;22725;-86
2022/01/07 00:47:47;;;;;;;11.30;5.20;;;;;;;-2.63;71.85;100593.98;106480;1276;22577;-89
2022/01/07 00:50:18;;;;;;;11.50;5.60;;;;;;;-2.72;72.08;100595.63;105672;1282;25522;-84
2022/01/07 00:52:47;;;;;;;11.40;6.20;;;;;;;-2.74;72.24;100606.08;107206;1280;25538;-86
2022/01/07 00:55:15;;;;;;;12.10;5.50;;;;;;;-2.72;72.62;100607.71;107040;1288;22591;-86
2022/01/07 00:57:43;;;;;;;11.60;5.50;;;;;;;-2.69;72.65;100604.91;107016;1286;22656;-86
2022/01/07 01:00:14;;;;;;;8.20;4.40;;;;;;;-2.62;72.76;100605.93;107071;1288;22559;-84
2022/01/07 01:02:41;;;;;;;11.20;5.30;;;;;;;-2.61;72.82;100603.73;107906;1286;22531;-89
2022/01/07 01:05:10;;;;;;;11.40;5.60;;;;;;;-2.59;72.62;100608.13;108212;1287;22567;-90
2022/01/07 01:07:39;;;;;;;11.60;4.90;;;;;;;-2.62;72.66;100608.19;108123;1287;22567;-88
2022/01/07 01:10:07;;;;;;;7.80;4.80;;;;;;;-2.59;72.77;100611.95;108063;1287;22611;-87
2022/01/07 01:12:36;;;;;;;15.20;5.90;;;;;;;-2.54;72.59;100608.58;108164;1281;22569;-85
2022/01/07 01:15:10;;;;;;;11.00;6.10;;;;;;;-2.53;72.66;100605.84;106341;1275;22565;-82
2022/01/07 01:17:37;;;;;;;9.30;5.10;;;;;;;-2.54;72.76;100604.58;106638;1275;22536;-84
2022/01/07 01:20:06;;;;;;;12.60;5.40;;;;;;;-2.54;72.83;100601.80;106110;1276;22559;-83
2022/01/07 01:22:35;;;;;;;8.90;4.90;;;;;;;-2.59;72.68;100598.33;106114;1276;22692;-81
2022/01/07 01:25:05;;;;;;;10.20;4.80;;;;;;;-2.70;72.77;100598.82;106120;1276;25374;-80
2022/01/07 01:27:32;;;;;;;11.70;6.00;;;;;;;-2.73;72.94;100593.00;106014;1276;22560;-86
2022/01/07 01:30:02;;;;;;;9.20;4.40;;;;;;;-2.78;72.91;100590.34;105838;1277;22584;-86
2022/01/07 01:32:29;;;;;;;7.50;4.80;;;;;;;-2.86;73.41;100591.51;106003;1277;22554;-84
2022/01/07 01:34:57;;;;;;;10.90;5.00;;;;;;;-2.94;73.50;100595.79;105809;1277;22906;-85
2022/01/07 01:37:23;;;;;;;11.90;4.60;;;;;;;-2.92;73.79;100600.02;105854;1276;24372;-83
2022/01/07 01:39:50;;;;;;;12.60;5.60;;;;;;;-2.90;73.78;100595.81;105878;1274;23934;-80
2022/01/07 01:42:17;;;;;;;9.40;4.20;;;;;;;-2.88;73.78;100596.95;105986;1274;22564;-83
2022/01/07 01:44:44;;;;;;;10.90;5.00;;;;;;;-2.89;73.79;100596.05;105935;1277;23939;-78
2022/01/07 01:47:11;;;;;;;10.90;5.30;;;;;;;-2.88;73.79;100602.30;106020;1274;22698;-82
2022/01/07 01:49:38;;;;;;;9.20;4.80;;;;;;;-2.83;73.77;100603.55;106128;1274;25477;-84
2022/01/07 01:52:07;;;;;;;14.30;5.80;;;;;;;-2.81;73.77;100608.30;106014;1276;22539;-82
2022/01/07 01:54:34;;;;;;;10.30;5.20;;;;;;;-2.79;73.72;100607.02;105692;1279;24302;-82
2022/01/07 01:57:01;;;;;;;13.60;5.90;;;;;;;-2.81;73.67;100611.07;106094;1281;22648;-82
2022/01/07 01:59:30;;;;;;;11.60;5.20;;;;;;;-2.86;73.62;100612.55;106000;1281;22686;-83
2022/01/07 02:01:57;;;;;;;12.60;5.00;;;;;;;-2.90;73.81;100610.48;106008;1279;22566;-84
2022/01/07 02:04:24;;;;;;;11.60;5.80;;;;;;;-2.96;73.73;100616.00;105863;1280;26540;-84
2022/01/07 02:06:51;;;;;;;10.80;5.80;;;;;;;-3.01;74.20;100620.63;106758;1279;22588;-85
2022/01/07 02:09:23;;;;;;;11.80;5.60;;;;;;;-3.01;74.30;100622.88;109169;1279;22623;-88
2022/01/07 02:11:50;;;;;;;10.80;6.00;;;;;;;-2.97;74.37;100629.06;109490;1274;22640;-89
2022/01/07 02:14:17;;;;;;;10.40;5.20;;;;;;;-2.96;74.44;100624.48;109653;1275;22549;-84
2022/01/07 02:16:44;;;;;;;6.50;4.10;;;;;;;-2.96;74.29;100629.47;109574;1274;22612;-87
2022/01/07 02:19:12;;;;;;;9.00;4.70;;;;;;;-2.94;74.28;100630.43;108824;1277;22610;-85
2022/01/07 02:21:39;;;;;;;10.70;5.30;;;;;;;-2.88;74.28;100630.36;109087;1274;22532;-85
2022/01/07 02:24:06;;;;;;;13.40;5.10;;;;;;;-2.83;74.21;100632.85;109627;1274;22868;-85
2022/01/07 02:26:47;;;;;;;9.10;5.60;;;;;;;-2.79;74.19;100633.07;109501;1274;22537;-84
2022/01/07 02:29:14;;;;;;;9.50;5.00;;;;;;;-2.75;73.90;100632.90;109308;1274;22505;-84
2022/01/07 02:31:41;;;;;;;11.40;5.50;;;;;;;-2.80;73.73;100632.31;108584;1274;22603;-86
2022/01/07 02:34:07;;;;;;;13.80;6.00;;;;;;;-2.92;73.76;100638.12;107069;1275;22572;-85
2022/01/07 02:36:34;;;;;;;10.20;5.20;;;;;;;-2.90;74.07;100636.48;106429;1274;26490;-83
2022/01/07 02:39:02;;;;;;;8.90;5.70;;;;;;;-2.93;73.91;100636.48;106027;1274;22559;-85
2022/01/07 02:41:31;;;;;;;12.40;6.10;;;;;;;-2.96;73.95;100649.48;106380;1274;25365;-83
2022/01/07 02:43:58;;;;;;;12.60;5.50;;;;;;;-2.94;74.25;100645.61;106082;1274;22576;-83
2022/01/07 02:46:25;;;;;;;8.80;5.50;;;;;;;-2.86;74.18;100650.29;106214;1274;25644;-83
2022/01/07 02:48:52;;;;;;;10.30;5.40;;;;;;;-2.89;73.66;100651.85;106189;1275;22750;-83
2022/01/07 02:51:19;;;;;;;10.70;5.90;;;;;;;-2.95;74.03;100652.30;106093;1274;22554;-83
2022/01/07 02:53:47;;;;;;;12.70;5.80;;;;;;;-2.97;73.79;100652.52;106177;1274;22690;-85
2022/01/07 02:56:14;;;;;;;10.70;5.80;;;;;;;-2.98;73.95;100648.66;106037;1274;24302;-84
2022/01/07 02:58:41;;;;;;;10.80;5.70;;;;;;;-2.96;73.88;100650.48;105944;1274;22600;-82
2022/01/07 03:01:08;;;;;;;11.40;5.70;;;;;;;-2.95;73.98;100649.34;106062;1274;24199;-84
2022/01/07 03:03:35;;;;;;;8.70;5.40;;;;;;;-2.95;73.93;100651.59;106233;1274;22579;-84
2022/01/07 03:06:02;;;;;;;12.00;5.50;;;;;;;-2.89;74.07;100651.52;105679;1277;25419;-82
2022/01/07 03:08:29;;;;;;;12.20;5.90;;;;;;;-2.92;73.77;100654.14;105957;1274;22532;-85
2022/01/07 03:10:56;;;;;;;10.60;5.80;;;;;;;-3.06;73.49;100654.15;106093;1274;23034;-84
2022/01/07 03:13:23;;;;;;;6.70;4.20;;;;;;;-3.14;73.83;100658.37;105930;1277;26590;-83
2022/01/07 03:15:50;;;;;;;11.10;5.40;;;;;;;-3.21;73.81;100657.70;106163;1274;22570;-82
2022/01/07 03:18:16;;;;;;;10.50;5.70;;;;;;;-3.22;73.98;100660.54;105988;1274;22615;-82
2022/01/07 03:20:43;;;;;;;9.70;4.90;;;;;;;-3.21;74.10;100661.11;105857;1275;22837;-82
2022/01/07 03:23:12;;;;;;;10.20;5.30;;;;;;;-3.14;74.12;100668.04;105960;1274;25359;-80
2022/01/07 03:25:41;;;;;;;9.40;4.60;;;;;;;-3.12;74.03;100663.86;106166;1274;22803;-79
2022/01/07 03:28:10;;;;;;;11.10;5.60;;;;;;;-3.13;73.92;100667.75;106101;1277;25365;-79
2022/01/07 03:30:37;;;;;;;13.50;5.70;;;;;;;-3.20;73.61;100662.57;106187;1274;22545;-81
2022/01/07 03:33:05;;;;;;;9.20;4.80;;;;;;;-3.27;73.95;100663.78;106077;1274;22564;-84
2022/01/07 03:35:33;;;;;;;12.10;5.10;;;;;;;-3.29;74.11;100669.70;106131;1274;25352;-85
2022/01/07 03:38:01;;;;;;;7.40;4.30;;;;;;;-3.30;73.97;100666.53;106040;1274;22538;-79
2022/01/07 03:40:28;;;;;;;9.20;5.20;;;;;;;-3.31;73.94;100665.44;106204;1277;24242;-81
2022/01/07 03:42:55;;;;;;;6.80;3.90;;;;;;;-3.30;74.19;100666.02;106487;1277;25364;-79
2022/01/07 03:45:22;;;;;;;10.80;4.90;;;;;;;-3.37;73.91;100671.73;106480;1274;22696;-78
2022/01/07 03:47:51;;;;;;;10.60;5.30;;;;;;;-3.43;73.95;100670.88;105727;1282;23075;-76
2022/01/07 03:50:23;;;;;;;8.50;4.90;;;;;;;-3.44;74.09;100671.30;105744;1281;22842;-78
2022/01/07 03:52:51;;;;;;;13.70;5.30;;;;;;;-3.38;74.10;100674.38;105740;1280;22542;-77
2022/01/07 03:55:23;;;;;;;12.00;4.90;;;;;;;-3.42;73.75;100672.83;106122;1281;22638;-80
2022/01/07 03:57:50;;;;;;;8.60;5.00;;;;;;;-3.39;74.11;100670.89;107359;1280;26609;-80
2022/01/07 04:00:24;;;;;;;10.20;5.20;;;;;;;-3.36;73.88;100673.98;106692;1281;22627;-77
2022/01/07 04:02:52;;;;;;;8.40;4.60;;;;;;;-3.37;73.87;100669.45;105671;1282;25472;-79
2022/01/07 04:05:22;;;;;;;10.20;5.20;;;;;;;-3.42;73.60;100674.70;105819;1277;22565;-82
2022/01/07 04:07:50;;;;;;;10.60;5.30;;;;;;;-3.46;73.59;100671.39;106191;1275;25255;-82
2022/01/07 04:10:17;;;;;;;11.80;5.40;;;;;;;-3.47;73.86;100671.55;105873;1277;25273;-81
2022/01/07 04:12:44;;;;;;;7.50;4.50;;;;;;;-3.38;73.79;100681.13;105997;1274;22583;-80
2022/01/07 04:15:11;;;;;;;9.80;4.90;;;;;;;-3.39;73.54;100676.41;106158;1277;22561;-81
2022/01/07 04:17:47;;;;;;;8.20;4.50;;;;;;;-3.44;73.56;100674.61;106302;1277;23222;-77
2022/01/07 04:20:19;;;;;;;9.20;5.30;;;;;;;-3.52;73.64;100672.47;106360;1274;22564;-79
2022/01/07 04:22:46;;;;;;;9.50;5.30;;;;;;;-3.51;73.78;100675.27;106400;1274;247891;-79
2022/01/07 04:25:18;;;;;;;11.90;6.30;;;;;;;-3.50;73.91;100673.25;106358;1274;22544;-80
2022/01/07 04:28:06;;;;;;;10.30;5.80;;;;;;;-3.48;73.69;100672.68;106138;1275;24958;-81
2022/01/07 04:30:39;;;;;;;13.30;6.20;;;;;;;-3.50;73.64;100671.73;106045;1274;25033;-83
2022/01/07 04:33:08;;;;;;;8.40;4.70;;;;;;;-3.52;73.56;100668.67;106084;1277;24246;-83
2022/01/07 04:35:36;;;;;;;12.20;5.60;;;;;;;-3.55;73.67;100665.27;106073;1274;25368;-80
2022/01/07 04:38:05;;;;;;;11.40;5.20;;;;;;;-3.57;73.67;100657.42;105958;1277;25312;-82
2022/01/07 04:40:34;;;;;;;10.30;5.80;;;;;;;-3.57;73.74;100656.17;105725;1277;22843;-81
2022/01/07 04:43:03;;;;;;;11.60;6.00;;;;;;;-3.55;73.99;100661.97;106090;1275;25257;-82
2022/01/07 04:45:30;;;;;;;12.00;6.00;;;;;;;-3.50;74.10;100664.13;105926;1276;24257;-76
2022/01/07 04:47:58;;;;;;;10.90;6.50;;;;;;;-3.48;73.86;100655.83;105935;1277;24300;-78
2022/01/07 04:50:25;;;;;;;12.90;7.10;;;;;;;-3.50;73.62;100658.30;105373;1281;24287;-80
2022/01/07 04:52:53;;;;;;;12.00;5.50;;;;;;;-3.52;73.54;100648.20;105885;1278;24367;-87
2022/01/07 04:55:29;;;;;;;11.40;6.80;;;;;;;-3.52;73.59;100645.65;106304;1277;22694;-83
2022/01/07 04:57:56;;;;;;;15.40;6.30;;;;;;;-3.56;73.47;100643.66;105992;1277;22532;-82
2022/01/07 05:00:24;;;;;;;13.00;6.80;;;;;;;-3.59;73.43;100641.45;107265;1277;23665;-80
2022/01/07 05:02:51;;;;;;;13.10;6.60;;;;;;;-3.63;73.42;100644.73;106420;1277;24355;-82
2022/01/07 05:05:19;;;;;;;12.60;7.00;;;;;;;-3.69;73.31;100647.13;106294;1277;22673;-83
2022/01/07 05:07:45;;;;;;;11.70;6.30;;;;;;;-3.70;73.43;100656.36;106373;1278;22651;-81
2022/01/07 05:10:15;;;;;;;15.10;6.10;;;;;;;-3.71;73.48;100655.96;106364;1277;26516;-81
2022/01/07 05:12:44;;;;;;;11.70;5.20;;;;;;;-3.68;73.60;100649.93;106203;1277;22863;-82
2022/01/07 05:15:13;;;;;;;10.10;5.00;;;;;;;-3.64;73.56;100648.08;105943;1277;24381;-85
2022/01/07 05:17:42;;;;;;;12.20;5.90;;;;;;;-3.65;73.30;100648.73;105919;1274;22556;-82
2022/01/07 05:20:11;;;;;;;10.50;5.70;;;;;;;-3.68;73.43;100648.88;106075;1277;22623;-85
2022/01/07 05:22:39;;;;;;;14.00;6.60;;;;;;;-3.68;73.37;100648.56;106129;1277;25679;-82
2022/01/07 05:25:09;;;;;;;13.10;5.80;;;;;;;-3.67;73.26;100642.08;106062;1277;25373;-85
2022/01/07 05:27:37;;;;;;;15.00;7.60;;;;;;;-3.65;73.22;100634.44;106203;1275;22700;-85
2022/01/07 05:30:06;;;;;;;13.00;6.20;;;;;;;-3.58;73.35;100632.70;106250;1274;25577;-82
2022/01/07 05:32:33;;;;;;;8.40;4.80;;;;;;;-3.55;73.10;100635.81;106003;1274;24332;-85
2022/01/07 05:35:00;;;;;;;14.10;6.50;;;;;;;-3.57;72.83;100637.58;105795;1275;25654;-84
2022/01/07 05:37:27;;;;;;;13.60;7.20;;;;;;;-3.58;72.89;100627.91;106000;1275;25993;-82
2022/01/07 05:39:56;;;;;;;12.10;5.50;;;;;;;-3.55;72.90;100631.02;106158;1274;24399;-82
2022/01/07 05:42:25;;;;;;;14.50;6.20;;;;;;;-3.55;72.77;100626.00;105855;1277;22557;-82
2022/01/07 05:44:52;;;;;;;14.20;6.80;;;;;;;-3.58;72.60;100627.77;105983;1277;25360;-82
2022/01/07 05:47:19;;;;;;;15.00;6.60;;;;;;;-3.59;72.59;100633.20;106053;1277;22561;-82
2022/01/07 05:49:46;;;;;;;15.70;6.30;;;;;;;-3.57;72.52;100631.92;106092;1277;25349;-82
2022/01/07 05:52:13;;;;;;;9.60;5.60;;;;;;;-3.56;72.52;100628.54;106059;1274;24221;-86
2022/01/07 05:54:40;;;;;;;14.40;6.20;;;;;;;-3.62;72.26;100630.10;105842;1277;22566;-82
2022/01/07 05:57:07;;;;;;;12.90;5.30;;;;;;;-3.64;72.37;100638.59;105942;1277;22846;-77
2022/01/07 05:59:34;;;;;;;16.40;7.30;;;;;;;-3.67;72.36;100642.41;106063;1274;24261;-84
2022/01/07 06:02:02;;;;;;;13.20;6.20;;;;;;;-3.67;72.44;100647.56;106262;1278;25423;-84
2022/01/07 06:04:29;;;;;;;11.50;4.90;;;;;;;-3.67;72.29;100647.06;105915;1277;22655;-81
2022/01/07 06:06:56;;;;;;;15.40;6.60;;;;;;;-3.67;72.24;100649.27;106349;1275;25420;-79
2022/01/07 06:09:23;;;;;;;11.80;5.80;;;;;;;-3.67;72.23;100652.60;106686;1277;22726;-79
2022/01/07 06:11:50;;;;;;;13.00;6.70;;;;;;;-3.66;72.27;100652.81;106631;1277;24378;-81
2022/01/07 06:14:17;;;;;;;14.00;6.30;;;;;;;-3.62;72.19;100654.44;106808;1277;22545;-80
2022/01/07 06:16:45;;;;;;;13.40;6.20;;;;;;;-3.62;71.96;100661.48;106355;1277;22797;-81
2022/01/07 06:19:12;;;;;;;11.00;5.80;;;;;;;-3.61;71.98;100656.84;106013;1277;26500;-77
2022/01/07 06:21:40;;;;;;;13.40;6.10;;;;;;;-3.59;71.73;100655.95;106028;1277;22970;-78
2022/01/07 06:24:08;;;;;;;14.30;6.90;;;;;;;-3.56;71.86;100660.23;106022;1274;25468;-77
2022/01/07 06:26:35;;;;;;;16.60;7.40;;;;;;;-3.53;71.69;100664.36;105993;1275;23433;-81
2022/01/07 06:29:03;;;;;;;11.70;5.90;;;;;;;-3.51;71.58;100662.54;106285;1274;25245;-78
2022/01/07 06:31:31;;;;;;;14.00;6.90;;;;;;;-3.52;71.43;100660.25;105976;1274;25245;-81
2022/01/07 06:33:58;;;;;;;12.30;6.90;;;;;;;-3.54;71.45;100654.31;106085;1277;22578;-81
2022/01/07 06:36:26;;;;;;;16.40;7.20;;;;;;;-3.53;71.49;100662.62;106282;1275;24203;-80
2022/01/07 06:38:53;;;;;;;12.40;6.90;;;;;;;-3.46;71.63;100660.05;106021;1274;24228;-80
2022/01/07 06:41:20;;;;;;;11.40;5.50;;;;;;;-3.42;71.30;100657.67;106124;1274;25306;-83
2022/01/07 06:43:48;;;;;;;7.20;4.20;;;;;;;-3.46;71.14;100659.69;106084;1274;25660;-84
2022/01/07 06:46:16;;;;;;;13.10;6.70;;;;;;;-3.52;71.13;100657.48;106155;1274;22707;-81
2022/01/07 06:48:47;;;;;;;14.30;6.50;;;;;;;-3.47;71.46;100653.44;106032;1274;24252;-78
2022/01/07 06:51:14;;;;;;;13.30;7.10;;;;;;;-3.49;71.13;100651.63;106019;1274;22583;-85
2022/01/07 06:53:41;;;;;;;14.60;5.80;;;;;;;-3.50;71.14;100651.05;106105;1274;22537;-84
2022/01/07 06:56:08;;;;;;;12.10;6.50;;;;;;;-3.50;71.42;100650.55;106387;1274;22563;-79
2022/01/07 06:58:35;;;;;;;14.60;6.90;;;;;;;-3.45;71.11;100652.52;105974;1275;22550;-83
2022/01/07 07:01:03;;;;;;;9.20;5.50;;;;;;;-3.45;71.23;100658.05;105891;1280;23875;-83
2022/01/07 07:03:31;;;;;;;11.30;5.60;;;;;;;-3.40;71.27;100660.34;106229;1274;22590;-81
2022/01/07 07:05:57;;;;;;;16.40;6.50;;;;;;;-3.38;71.46;100665.10;106118;1275;22558;-81
2022/01/07 07:08:25;;;;;;;14.80;6.20;;;;;;;-3.37;71.11;100666.73;105955;1274;22543;-81
2022/01/07 07:10:52;;;;;;;13.40;6.80;;;;;;;-3.34;71.29;100667.04;106040;1274;23061;-81
2022/01/07 07:13:19;;;;;;;13.10;6.50;;;;;;;-3.37;71.18;100667.08;106022;1274;25257;-79
2022/01/07 07:15:46;;;;;;;11.20;6.50;;;;;;;-3.31;71.29;100664.94;105890;1277;22858;-80
2022/01/07 07:18:14;;;;;;;14.20;6.80;;;;;;;-3.25;71.19;100667.85;105929;1277;25350;-81
2022/01/07 07:20:41;;;;;;;16.90;6.40;;;;;;;-3.24;71.15;100668.57;105903;1275;26747;-82
2022/01/07 07:23:11;;;;;;;10.30;5.70;;;;;;;-3.23;71.32;100671.72;106228;1274;25366;-81
2022/01/07 07:25:38;;;;;;;17.80;7.00;;;;;;;-3.20;71.09;100668.95;105655;1281;22585;-81
2022/01/07 07:28:05;;;;;;;14.50;6.30;;;;;;;-3.21;71.18;100673.36;105636;1281;26517;-80
2022/01/07 07:30:39;;;;;;;14.50;6.30;;;;;;;-3.21;71.24;100671.65;105876;1281;22545;-83
2022/01/07 07:38:41;;;;;;;11.50;6.00;;;;;;;-3.05;71.45;100669.17;105516;1284;25370;-80
2022/01/07 07:41:10;;;;;;;9.70;5.00;;;;;;;-3.00;71.37;100667.17;105475;1284;22565;-77
2022/01/07 07:43:38;;;;;;;14.80;6.70;;;;;;;-2.97;71.43;100669.21;106848;1281;22975;-85
2022/01/07 07:46:05;;;;;;;17.60;6.80;;;;;;;-2.93;71.47;100671.14;108253;1281;24352;-81
2022/01/07 07:48:33;;;;;;;11.70;6.40;;;;;;;-2.90;71.31;100662.52;106814;1281;22804;-82
2022/01/07 07:51:02;;;;;;;13.00;6.00;;;;;;;-2.88;71.33;100664.35;106321;1281;22547;-82
2022/01/07 07:53:29;;;;;;;12.00;7.00;;;;;;;-2.84;71.39;100656.96;106420;1281;22548;-84
2022/01/07 07:55:56;;;;;;;12.10;6.70;;;;;;;-2.83;71.41;100655.27;106693;1280;25303;-83
2022/01/07 07:58:27;;;;;;;12.30;6.20;;;;;;;-2.81;71.66;100650.53;107908;1274;22534;-81
2022/01/07 08:00:56;;;;;;;14.30;6.50;;;;;;;-2.71;71.69;100651.35;108368;1275;23943;-81
2022/01/07 08:03:25;;;;;;;10.70;6.50;;;;;;;-2.63;71.70;100652.06;107679;1275;25251;-78
2022/01/07 08:05:52;;;;;;;18.00;7.90;;;;;;;-2.57;71.74;100648.91;105828;1280;22540;-80
2022/01/07 08:08:20;;;;;;;14.40;7.30;;;;;;;-2.51;71.82;100645.76;106708;1274;25674;-79
2022/01/07 08:10:54;;;;;;;16.50;7.90;;;;;;;-2.45;71.84;100640.85;106343;1276;22484;-78
2022/01/07 08:15:59;;;;;;;13.60;6.90;;;;;;;-2.36;71.74;100646.65;105704;1280;24244;-76
2022/01/07 08:18:30;;;;;;;13.80;7.80;;;;;;;-2.27;71.82;100658.45;105793;1280;22499;-78
2022/01/07 08:21:01;;;;;;;16.40;6.60;;;;;;;-2.20;71.70;100653.80;105616;1281;22565;-81
2022/01/07 08:23:29;;;;;;;18.60;8.20;;;;;;;-2.13;71.68;100651.36;105360;1281;25495;-79
2022/01/07 08:25:56;;;;;;;13.40;7.70;;;;;;;-2.03;71.62;100649.72;105418;1280;22631;-78
2022/01/07 08:28:26;;;;;;;13.50;6.30;;;;;;;-1.93;71.69;100653.64;105568;1280;23937;-81
2022/01/07 08:36:33;;;;;;;17.10;8.10;;;;;;;-1.67;71.05;100662.41;106096;1274;22559;-81
2022/01/07 08:39:03;;;;;;;14.30;7.20;;;;;;;-1.66;70.76;100663.48;106088;1277;22573;-82
2022/01/07 08:41:31;;;;;;;15.10;8.50;;;;;;;-1.66;71.07;100661.61;106218;1274;25399;-84
2022/01/07 08:43:58;;;;;;;15.40;7.30;;;;;;;-1.58;71.07;100662.61;106135;1277;22513;-83
2022/01/07 08:46:26;;;;;;;18.90;7.60;;;;;;;-1.51;71.12;100661.58;106027;1276;24246;-83
2022/01/07 08:48:54;;;;;;;16.30;8.40;;;;;;;-1.43;70.71;100663.77;106087;1274;22597;-83
2022/01/07 08:51:21;;;;;;;10.20;5.60;;;;;;;-1.49;70.18;100659.03;106195;1277;25504;-85
2022/01/07 08:53:50;;;;;;;12.20;6.70;;;;;;;-1.45;70.43;100656.11;105982;1277;26673;-84
2022/01/07 08:56:18;;;;;;;14.70;7.10;;;;;;;-1.34;70.49;100670.40;106036;1276;25248;-82
2022/01/07 08:58:45;;;;;;;15.70;7.20;;;;;;;-1.27;70.08;100671.60;105924;1276;23202;-81
2022/01/07 09:01:13;;;;;;;14.60;6.50;;;;;;;-1.23;69.85;100672.41;105936;1276;25538;-84
2022/01/07 09:03:40;;;;;;;16.00;7.00;;;;;;;-1.20;69.98;100674.11;105948;1277;22823;-83
2022/01/07 09:06:07;;;;;;;16.90;8.40;;;;;;;-1.09;70.25;100674.23;106017;1277;27077;-84
2022/01/07 09:08:34;;;;;;;15.60;8.30;;;;;;;-0.95;70.01;100677.76;106005;1277;22561;-82
2022/01/07 09:11:01;;;;;;;12.50;7.70;;;;;;;-0.91;69.73;100681.92;105922;1276;22578;-81
2022/01/07 09:13:28;;;;;;;12.50;6.20;;;;;;;-0.89;69.61;100682.51;105971;1277;25456;-81
2022/01/07 09:15:55;;;;;;;15.80;7.80;;;;;;;-0.93;68.83;100676.30;106007;1274;22544;-81
2022/01/07 09:18:24;;;;;;;16.40;7.30;;;;;;;-1.03;69.06;100673.98;106109;1277;25330;-82
2022/01/07 09:20:51;;;;;;;10.20;6.40;;;;;;;-1.01;69.23;100669.39;106059;1274;25359;-81
2022/01/07 09:23:19;;;;;;;13.40;8.10;;;;;;;-1.05;68.74;100668.35;105782;1277;22705;-83
2022/01/07 09:25:47;;;;;;;17.40;8.20;;;;;;;-1.06;68.95;100664.16;106009;1275;22622;-83
2022/01/07 09:28:14;;;;;;;12.70;6.40;;;;;;;-1.02;68.83;100660.55;105982;1275;22562;-84
2022/01/07 09:30:45;;;;;;;15.40;6.70;;;;;;;-1.06;68.11;100662.27;106047;1275;22568;-83
2022/01/07 09:33:13;;;;;;;14.90;6.90;;;;;;;-1.15;68.02;100662.40;106214;1274;22537;-81
2022/01/07 09:35:41;;;;;;;17.60;8.40;;;;;;;-1.17;68.06;100663.35;106175;1274;22562;-83
2022/01/07 09:38:08;;;;;;;18.60;7.30;;;;;;;-1.15;67.91;100662.39;106171;1276;22593;-83
2022/01/07 09:40:35;;;;;;;16.70;8.10;;;;;;;-1.09;67.79;100660.25;106172;1277;24965;-81
2022/01/07 09:43:05;;;;;;;18.70;8.50;;;;;;;-1.05;68.09;100655.75;106152;1275;22805;-83
2022/01/07 09:45:34;;;;;;;12.40;7.10;;;;;;;-0.96;68.12;100652.31;106251;1274;22562;-83
2022/01/07 09:48:03;;;;;;;14.00;7.90;;;;;;;-0.96;67.59;100647.29;106265;1276;22624;-83
2022/01/07 09:50:32;;;;;;;16.20;8.20;;;;;;;-0.93;67.88;100649.13;106404;1275;22950;-83
2022/01/07 09:53:08;;;;;;;13.90;7.00;;;;;;;-0.89;66.90;100642.23;105994;1281;22563;-86
2022/01/07 09:55:37;;;;;;;13.00;7.50;;;;;;;-0.89;66.88;100648.13;106135;1285;24214;-89
2022/01/07 09:58:05;;;;;;;13.70;7.80;;;;;;;-0.79;67.23;100651.98;106171;1286;22586;-84
2022/01/07 10:00:41;;;;;;;10.30;6.40;;;;;;;-0.59;66.78;100649.16;105495;1284;22617;-80
2022/01/07 10:03:28;;;;;;;9.90;5.00;;;;;;;-0.49;66.53;100640.88;105496;1284;23983;-82
2022/01/07 10:05:56;;;;;;;16.10;7.70;;;;;;;-0.39;65.93;100635.38;105439;1285;22569;-79
2022/01/07 10:08:28;;;;;;;15.30;7.70;;;;;;;-0.26;65.51;100632.44;105433;1287;24251;-80
2022/01/07 10:11:21;;;;;;;13.00;7.10;;;;;;;-0.08;65.61;100627.08;105546;1280;24277;-92
2022/01/07 10:14:16;;;;;;;14.50;8.00;;;;;;;0.28;65.85;100622.84;106610;1274;22671;-83
2022/01/07 10:16:59;;;;;;;14.70;7.60;;;;;;;0.56;64.91;100618.11;106559;1280;25025;-84
2022/01/07 10:19:56;;;;;;;15.90;7.50;;;;;;;0.62;63.82;100620.75;106477;1280;25367;-85
2022/01/07 10:22:23;;;;;;;14.60;8.20;;;;;;;0.69;63.42;100611.82;106270;1285;22564;-82
2022/01/07 10:24:59;;;;;;;12.30;7.00;;;;;;;0.70;63.39;100611.00;105611;1285;22563;-85
2022/01/07 10:27:35;;;;;;;16.10;6.60;;;;;;;0.62;62.79;100616.25;105395;1285;22570;-83
2022/01/07 10:30:14;;;;;;;10.90;5.80;;;;;;;0.45;62.79;100617.58;105546;1285;25275;-84
2022/01/07 10:32:42;;;;;;;14.00;7.50;;;;;;;0.38;62.88;100617.30;105915;1286;23693;-85
2022/01/07 10:35:18;;;;;;;10.80;6.80;;;;;;;0.36;63.06;100615.17;106173;1281;25226;-84
2022/01/07 10:37:50;;;;;;;14.90;6.70;;;;;;;0.40;62.08;100618.58;105869;1281;22667;-86
2022/01/07 10:40:40;;;;;;;8.90;5.20;;;;;;;0.49;62.04;100621.00;105846;1281;22629;-85
2022/01/07 10:43:09;;;;;;;16.50;7.70;;;;;;;0.55;61.29;100609.58;106254;1281;23960;-83
2022/01/07 10:45:38;;;;;;;12.60;7.00;;;;;;;0.54;61.91;100607.99;106419;1282;22550;-87
2022/01/07 10:48:09;;;;;;;13.30;7.10;;;;;;;0.60;61.42;100609.75;106565;1281;25390;-79
2022/01/07 10:50:47;;;;;;;14.80;7.80;;;;;;;0.65;62.10;100607.67;105903;1281;23344;-83
2022/01/07 10:53:40;;;;;;;14.90;7.50;;;;;;;0.84;61.78;100610.39;106169;1281;22564;-83
2022/01/07 10:56:17;;;;;;;15.00;7.30;;;;;;;0.94;61.20;100617.84;106066;1281;25370;-83
2022/01/07 11:02:23;;;;;;;;;;;;;;;;;;;;;
2022/01/07 11:05:19;;;;;;;9.40;5.20;;;;;;;1.27;60.68;100621.71;108655;1271;22511;31
2022/01/07 11:08:08;;;;;;;13.40;7.10;;;;;;;1.37;60.71;100618.91;108574;1272;23033;31
2022/01/07 11:17:21;;;;;;;12.20;5.90;;;;;;;1.95;60.51;100611.67;92036;1284;22688;31
2022/01/07 11:20:06;;;;;;;12.80;7.90;;;;;;;2.04;60.22;100607.04;108069;1276;24392;31
2022/01/07 11:43:00;;;;;;;11.80;6.60;;;;;;;3.06;56.66;100606.98;91782;1288;22689;31
2022/01/07 11:45:35;;;;;;;10.90;6.20;;;;;;;3.26;56.43;100602.60;108238;1290;22516;-82
2022/01/07 11:48:42;;;;;;;12.00;6.60;;;;;;;3.51;55.39;100608.59;108148;1292;22237;-82
2022/01/07 11:58:21;;;;;;;15.70;6.80;;;;;;;3.40;53.65;100588.48;108246;1278;23100;31
2022/01/07 12:01:01;;;;;;;11.60;7.00;;;;;;;3.28;54.26;100586.46;108150;1290;22265;-81
2022/01/07 12:04:13;;;;;;;11.60;6.60;;;;;;;3.36;54.87;100588.89;107750;1295;22507;-83
2022/01/07 12:13:45;;;;;;;12.70;6.70;;;;;;;2.90;54.30;100586.05;107860;1278;22844;31
2022/01/07 12:19:53;;;;;;;9.30;5.50;;;;;;;2.88;54.81;100579.23;107808;1279;24445;31
2022/01/07 12:22:48;;;;;;;13.50;6.10;;;;;;;3.03;53.65;100576.81;108089;1280;22609;31
2022/01/07 12:25:57;;;;;;;13.50;6.20;;;;;;;2.96;54.14;100577.34;108016;1279;22413;31
2022/01/07 12:28:55;;;;;;;13.70;6.90;;;;;;;2.93;53.82;100566.65;107698;1283;22324;31